Tiempo atmosférico en la estación meteorológica de Villanueva Del Fresno, Badajoz (247 m.)



Fecha
DESCASC
Temp. máxima en grados centígrados (hora)
DESCASC
Temp. mínima en grados centígrados (hora)
DESCASC
Temp. media en grados centígrados
DESCASC
Racha de viento máxima en m/sg (hora)
DESCASC
Velocidad máxima media en intervalos de 10 minutos(hora)
DESCASC
Precipitaciones diarias en mm
DESCASC
Precipitaciones de 00:00 a 06:00 en mm
DESCASC
Precipitaciones de 06:00 a 12:00 en mm
DESCASC
Precipitaciones de 12:00 a 18:00 en mm
DESCASC
Precipitaciones de 18:00 a 24:00 en mm
DESCASC
07-08-2020 36 (17:40) 22.9 (08:10) 29.4 11.11 (17:10) 6.39 (17:20) 0 0 0 0 0
06-08-2020 39.4 (17:30) 21.4 (07:50) 30.4 11.67 (18:50) 7.5 (18:50) 0 0 0 0 0
05-08-2020 38.4 (18:00) 21 (07:40) 29.7 8.33 (23:00) 5.83 (23:00) 0 0 0 0 0
04-08-2020 37.3 (18:30) 17 (07:20) 27.1 8.61 (23:10) 5.28 (23:10) 0 0 0 0 0
03-08-2020 34.8 (18:40) 16.7 (07:50) 25.8 10.56 (21:40) 6.67 (21:30) 0 0 0 0 0
02-08-2020 35.4 (18:00) 15.9 (00:00) 25.7 13.06 (18:20) 6.94 (20:30) 0 0 0 0 0
01-08-2020 38 (16:50) 17.7 (00:00) 27.9 8.89 (17:20) 5.56 (18:00) 0 0 0 0 0
31-07-2020 37.6 (17:50) 20.6 (07:20) 29.1 8.89 (23:30) 5.83 (23:30) 0 0 0 0 0
30-07-2020 36.1 (17:40) 22 (00:00) 29 10.28 (13:00) 6.39 (10:10) 0 0 0 0 0
29-07-2020 38.7 (18:40) 17.2 (00:00) 28 9.72 (17:40) 5.83 (21:10) 0 0 0 0 0
28-07-2020 36.2 (19:10) 18.5 (00:00) 27.4 8.33 (18:30) 5 (20:50) 0 0 0 0 0
27-07-2020 35.1 (18:50) 21.6 (00:00) 28.3 10.28 (15:00) 7.22 (15:50) 0 0 0 0 0
26-07-2020 41.1 (17:50) 18.2 (00:00) 29.6 7.5 (00:30) 4.72 (18:20) 0 0 0 0 0
25-07-2020 -- (--) -- (--) -- -- (--) -- (--) -- 0 -- 0 0
24-07-2020 -- (--) -- (--) -- -- (--) -- (--) -- -- 0 0 0
23-07-2020 -- (--) -- (--) -- -- (--) -- (--) -- -- -- -- 0
22-07-2020 -- (--) -- (--) -- -- (--) -- (--) -- -- -- -- --
21-07-2020 -- (--) -- (--) -- -- (--) -- (--) -- 0 0 -- --
20-07-2020 39.7 (17:50) 20.3 (00:00) 30 -- (--) -- (--) -- 0 0 -- 0
19-07-2020 -- (--) -- (--) -- -- (--) -- (--) -- -- -- -- --
18-07-2020 -- (--) -- (--) -- -- (--) -- (--) -- 0 0 -- --
17-07-2020 40.5 (18:50) 23.9 (00:00) 32.2 11.39 (20:50) 6.94 (20:50) 0 0 0 0 0
16-07-2020 -- (--) -- (--) -- -- (--) -- (--) -- -- -- -- --
15-07-2020 -- (--) -- (--) -- -- (--) -- (--) -- 0 -- -- --
14-07-2020 38.7 (17:50) 22.3 (00:00) 30.5 12.22 (21:20) 8.61 (21:20) 0 0 0 0 0
13-07-2020 38.4 (17:40) 21.8 (00:00) 30.1 11.11 (16:20) 5.83 (15:00) 0 0 0 0 0

Gráficas

Temp. máximas Temp. mínimas Temp. medias Precipitaciones Rachas de viento máximas Velocidades máximas media en intervalos de 10 minutos

Datos horarios

Fecha y hora oficial Temperatura (ºC) Velocidad del viento (km/h) Dirección del viento Racha (km/h) Dirección de racha Precipitación (mm) Presión (hPa) Tendencia (hPa) Humedad (%)
2020-08-11 23:00:00 -- -- -- -- -- -- -- -- --
2020-08-11 22:00:00 -- -- -- -- -- -- -- -- --
2020-08-11 21:00:00 -- -- -- -- -- -- -- -- --
2020-08-11 20:00:00 -- -- -- -- -- -- -- -- --
2020-08-11 19:00:00 -- -- -- -- -- -- -- -- --
2020-08-11 18:00:00 -- -- -- -- -- -- -- -- --
2020-08-11 17:00:00 -- -- -- -- -- -- -- -- --
2020-08-11 16:00:00 -- -- -- -- -- -- -- -- --
2020-08-11 15:00:00 28.3 15 Oeste 28 Oeste 0 -- -- 41
2020-08-11 14:00:00 27 14 Oeste 23 Noroeste 0 -- -- 46
2020-08-11 13:00:00 25.4 11 Oeste 18 Noroeste 0 -- -- 52
2020-08-11 12:00:00 23.8 11 Oeste 20 Sudoeste -- -- -- 60
2020-08-11 11:00:00 21.4 8 Oeste 13 Oeste 0 -- -- 67
2020-08-11 10:00:00 19.1 4 Noroeste 9 Noroeste 0 -- -- 74
2020-08-11 09:00:00 17.9 7 Norte 12 Norte 0 -- -- 77
2020-08-11 08:00:00 17.1 4 Norte 7 Noroeste 0 -- -- 80
2020-08-11 07:00:00 17.8 4 Noroeste 8 Noroeste 0 -- -- 77
2020-08-11 06:00:00 18.3 4 Norte 5 Norte 0 -- -- 73
2020-08-11 05:00:00 19.2 3 Nordeste 7 Noroeste 0 -- -- 68
2020-08-11 04:00:00 19.7 6 Nordeste 9 Este 0 -- -- 67
2020-08-11 03:00:00 20.5 5 Norte 8 Norte 0 -- -- 67
2020-08-11 02:00:00 21.4 7 Noroeste 12 Noroeste 0 -- -- 66
2020-08-11 01:00:00 23.5 6 Noroeste 18 Norte 0 -- -- 57
2020-08-11 00:00:00 25.2 13 Noroeste 22 Noroeste 0 -- -- 51
2020-08-10 23:00:00 27 8 Noroeste 16 Noroeste 0 -- -- 41
2020-08-10 22:00:00 29.4 10 Oeste 20 Oeste 0 -- -- 33
2020-08-10 21:00:00 31.8 15 Oeste 25 Oeste 0 -- -- 28
2020-08-10 20:00:00 33.2 17 Noroeste 30 Oeste 0 -- -- 28
2020-08-10 19:00:00 34 15 Oeste 30 Oeste 0 -- -- 28
2020-08-10 18:00:00 34.1 14 Oeste 29 Oeste 0 -- -- 27
2020-08-10 17:00:00 33.2 19 Oeste 35 Oeste 0 -- -- 30
2020-08-10 16:00:00 32.2 18 Oeste 30 Oeste 0 -- -- 31
2020-08-10 15:00:00 30.7 13 Oeste 21 Oeste 0 -- -- 35
2020-08-10 14:00:00 28.5 11 Oeste 22 Oeste 0 -- -- 40
2020-08-10 13:00:00 26.1 8 Sudoeste 20 Oeste 0 -- -- 50
2020-08-10 12:00:00 23.9 9 Oeste 15 Noroeste 0 -- -- 58
2020-08-10 11:00:00 21.4 6 Noroeste 12 Noroeste 0 -- -- 67
2020-08-10 10:00:00 19.4 4 Norte 12 Norte 0 -- -- 76
2020-08-10 09:00:00 17.1 7 Norte 12 Norte 0 -- -- 86
2020-08-10 08:00:00 16.2 8 Norte 11 Norte 0 -- -- 86
2020-08-10 07:00:00 16.7 2 Norte 10 Norte 0 -- -- 84
2020-08-10 06:00:00 17.5 6 Norte 10 Norte 0 -- -- 76
2020-08-10 05:00:00 18.1 0 Calma 5 Nordeste 0 -- -- 72
2020-08-10 04:00:00 19.2 0 Calma 8 Nordeste 0 -- -- 68
2020-08-10 03:00:00 20.4 6 Nordeste 15 Norte 0 -- -- 65
2020-08-10 02:00:00 22.3 7 Norte 14 Norte 0 -- -- 61
2020-08-10 01:00:00 24 5 Norte 20 Norte 0 -- -- 57
2020-08-10 00:00:00 26.1 12 Norte 24 Norte 0 -- -- 49
2020-08-09 23:00:00 28 14 Noroeste 27 Noroeste 0 -- -- 40
2020-08-09 22:00:00 30.7 17 Noroeste 27 Noroeste 0 -- -- 35
2020-08-09 21:00:00 33 17 Noroeste 28 Noroeste 0 -- -- 31
2020-08-09 20:00:00 34.6 13 Oeste 25 Oeste 0 -- -- 29
2020-08-09 19:00:00 35.3 14 Noroeste 23 Noroeste 0 -- -- 27
2020-08-09 18:00:00 34.9 13 Oeste 26 Oeste 0 -- -- 27
2020-08-09 17:00:00 35.6 12 Oeste 28 Oeste 0 -- -- 28
2020-08-09 16:00:00 34.8 14 Noroeste 29 Oeste 0 -- -- 29
2020-08-09 15:00:00 33.9 13 Oeste 26 Oeste 0 -- -- 29
2020-08-09 14:00:00 32.4 10 Oeste 19 Oeste 0 -- -- 34
2020-08-09 13:00:00 30.1 10 Oeste 19 Sudoeste 0 -- -- 39
2020-08-09 12:00:00 28.2 7 Oeste 19 Noroeste 0 -- -- 43
2020-08-09 11:00:00 25.9 7 Oeste 12 Oeste 0 -- -- 48
2020-08-09 10:00:00 23.5 3 Noroeste 8 Norte 0 -- -- 54
2020-08-09 09:00:00 20.8 4 Norte 8 Norte 0 -- -- 60
2020-08-09 08:00:00 19.4 0 Calma 3 Sur 0 -- -- 59
2020-08-09 07:00:00 20.3 0 Calma 3 Sur 0 -- -- 56
2020-08-09 06:00:00 21.7 2 Nordeste 8 Norte 0 -- -- 53
2020-08-09 05:00:00 22.5 3 Norte 7 Nordeste 0 -- -- 47
2020-08-09 04:00:00 23.8 6 Norte 14 Norte 0 -- -- 44
2020-08-09 03:00:00 24.5 6 Nordeste 11 Nordeste 0 -- -- 43
2020-08-09 02:00:00 25.5 8 Nordeste 12 Nordeste 0 -- -- 44
2020-08-09 01:00:00 26.8 9 Nordeste 25 Norte 0 -- -- 48
2020-08-09 00:00:00 28.4 16 Norte 25 Norte 0 -- -- 45
2020-08-08 23:00:00 30.3 12 Norte 17 Noroeste 0 -- -- 40
2020-08-08 22:00:00 32.4 6 Oeste 16 Oeste 0 -- -- 36
2020-08-08 21:00:00 34.2 13 Oeste 26 Oeste 0 -- -- 34
2020-08-08 20:00:00 35.5 15 Oeste 29 Oeste 0 -- -- 31
2020-08-08 19:00:00 35.5 16 Oeste 33 Noroeste 0 -- -- 33
2020-08-08 18:00:00 35.5 19 Oeste 36 Oeste 0 -- -- 36
2020-08-08 17:00:00 34.8 14 Oeste 33 Oeste 0 -- -- 38
2020-08-08 16:00:00 35.2 19 Oeste 31 Oeste 0 -- -- 35
2020-08-08 15:00:00 34.1 16 Sudoeste 29 Sudoeste 0 -- -- 35
2020-08-08 14:00:00 32.8 10 Sudoeste 26 Sudoeste 0 -- -- 36
2020-08-08 13:00:00 30.5 12 Oeste 25 Sudoeste 0 -- -- 41
2020-08-08 12:00:00 28.4 14 Sudoeste 21 Sudoeste 0 -- -- 45
2020-08-08 11:00:00 27.3 8 Oeste 12 Sudoeste 0 -- -- 46
2020-08-08 10:00:00 25.4 5 Sur 12 Sudeste 0 -- -- 52
2020-08-08 09:00:00 21.9 4 Sudeste 8 Sur 0 -- -- 67
2020-08-08 08:00:00 21.3 0 Calma 7 Sur 0 -- -- 70
2020-08-08 07:00:00 22.1 3 Sur 6 Sudoeste 0 -- -- 68
2020-08-08 06:00:00 22.5 5 Sudoeste 8 Sudoeste 0 -- -- 68
2020-08-08 05:00:00 22.9 8 Sudeste 12 Sudeste 0 -- -- 68
2020-08-08 04:00:00 23.7 4 Sur 9 Sur 0 -- -- 65
2020-08-08 03:00:00 25.2 3 Oeste 9 Oeste 0 -- -- 60
2020-08-08 02:00:00 26.3 6 Oeste 18 Oeste 0 -- -- 58
2020-08-08 01:00:00 27.4 14 Sudoeste 24 Sudoeste 0 -- -- 55
2020-08-08 00:00:00 27.9 12 Sudoeste 22 Sudoeste 0 -- -- 52
2020-08-07 23:00:00 28.9 7 Sudoeste 12 Sudoeste 0 -- -- 48
2020-08-07 22:00:00 30.4 9 Sudoeste 24 Sudoeste 0 -- -- 46
2020-08-07 21:00:00 32.3 19 Sudoeste 30 Sudoeste 0 -- -- 42
2020-08-07 20:00:00 33.7 20 Sudoeste 35 Sudoeste 0 -- -- 39
2020-08-07 19:00:00 35 19 Sudoeste 33 Sudoeste 0 -- -- 34
2020-08-07 18:00:00 35.4 21 Sudoeste 40 Sudoeste 0 -- -- 33
2020-08-07 17:00:00 35.6 22 Sudoeste 37 Oeste 0 -- -- 33
2020-08-07 16:00:00 35.9 15 Sudoeste 32 Sudoeste 0 -- -- 31
2020-08-07 15:00:00 34.9 14 Sudoeste 30 Oeste 0 -- -- 31
2020-08-07 14:00:00 33.9 23 Sudoeste 39 Sudoeste 0 -- -- 31
2020-08-07 13:00:00 33 14 Sur 25 Sudoeste 0 -- -- 31
2020-08-07 12:00:00 31 15 Sudoeste 22 Sur 0 -- -- 38
2020-08-07 11:00:00 29.1 14 Sur 27 Sudoeste 0 -- -- 42
2020-08-07 10:00:00 27 11 Sur 21 Sur 0 -- -- 48
2020-08-07 09:00:00 24.8 8 Sur 14 Sur 0 -- -- 54
2020-08-07 08:00:00 23.1 8 Sudeste 11 Sur 0 -- -- 58
2020-08-07 07:00:00 23.8 4 Sudoeste 14 Sudoeste 0 -- -- 55
2020-08-07 06:00:00 24 6 Sudoeste 13 Sudoeste 0 -- -- 56
2020-08-07 05:00:00 24.3 3 Sudoeste 10 Sudoeste 0 -- -- 57
2020-08-07 04:00:00 24.5 5 Sudoeste 9 Sudoeste 0 -- -- 55
2020-08-07 03:00:00 25.3 6 Sudoeste 10 Sudoeste 0 -- -- 52
2020-08-07 02:00:00 26.2 5 Oeste 10 Sudoeste 0 -- -- 49
2020-08-07 01:00:00 27.2 7 Sudoeste 14 Oeste 0 -- -- 46
2020-08-07 00:00:00 29 11 Oeste 19 Sudoeste 0 -- -- 41
2020-08-06 23:00:00 30.8 15 Sudoeste 22 Sudoeste 0 -- -- 39
2020-08-06 22:00:00 32.5 12 Oeste 31 Oeste 0 -- -- 34
2020-08-06 21:00:00 34.4 22 Oeste 38 Oeste 0 -- -- 32
2020-08-06 20:00:00 36.3 24 Oeste 37 Sudoeste 0 -- -- 29
2020-08-06 19:00:00 37.5 27 Oeste 42 Oeste 0 -- -- 27
2020-08-06 18:00:00 38.6 18 Sudoeste 37 Sudoeste 0 -- -- 26
2020-08-06 17:00:00 39 19 Sudoeste 30 Sudoeste 0 -- -- 25
2020-08-06 16:00:00 38.6 20 Sudoeste 35 Sudoeste 0 -- -- 26
2020-08-06 15:00:00 37.8 15 Oeste 27 Sudoeste 0 -- -- 27
2020-08-06 14:00:00 36.2 12 Sudeste 34 Sur 0 -- -- 30
2020-08-06 13:00:00 34.3 9 Sudoeste 20 Sur 0 -- -- 33
2020-08-06 12:00:00 32.1 12 Oeste 22 Oeste 0 -- -- 36
2020-08-06 11:00:00 30 13 Sudoeste 19 Sudoeste 0 -- -- 40
2020-08-06 10:00:00 27.5 7 Sur 11 Sudeste 0 -- -- 46
2020-08-06 09:00:00 23.7 0 Calma 6 Sur 0 -- -- 54
2020-08-06 08:00:00 21.5 4 Sur 5 Sur 0 -- -- 59
2020-08-06 07:00:00 21.7 3 Sur 5 Sur 0 -- -- 58
2020-08-06 06:00:00 22 3 Sudeste 8 Sudoeste 0 -- -- 57
2020-08-06 05:00:00 22.5 7 Sudoeste 12 Sudoeste 0 -- -- 55
2020-08-06 04:00:00 23.1 5 Sudeste 9 Sur 0 -- -- 55
2020-08-06 03:00:00 24 4 Sudeste 9 Sudoeste 0 -- -- 53
2020-08-06 02:00:00 25 6 Sudoeste 15 Oeste 0 -- -- 51
2020-08-06 01:00:00 26.7 12 Sudoeste 18 Sudoeste 0 -- -- 47
2020-08-06 00:00:00 30.1 11 Oeste 28 Oeste 0 -- -- 43
2020-08-05 23:00:00 32 21 Sudoeste 30 Sudoeste 0 -- -- 38
2020-08-05 22:00:00 34.6 5 Noroeste 18 Oeste 0 -- -- 31
2020-08-05 21:00:00 36.2 13 Oeste 22 Oeste 0 -- -- 29
2020-08-05 20:00:00 37.6 14 Noroeste 26 Oeste 0 -- -- 27
2020-08-05 19:00:00 38.4 8 Oeste 22 Oeste 0 -- -- 26
2020-08-05 18:00:00 38.4 13 Oeste 24 Sudoeste 0 -- -- 27
2020-08-05 17:00:00 37.6 12 Sudoeste 24 Oeste 0 -- -- 27
2020-08-05 16:00:00 37 14 Oeste 27 Oeste 0 -- -- 29
2020-08-05 15:00:00 35.8 10 Noroeste 24 Oeste 0 -- -- 30
2020-08-05 14:00:00 34.8 10 Oeste 24 Noroeste 0 -- -- 32
2020-08-05 13:00:00 33.1 10 Oeste 20 Oeste 0 -- -- 35
2020-08-05 12:00:00 30.9 8 Oeste 16 Noroeste 0 -- -- 40
2020-08-05 11:00:00 28.3 4 Sudoeste 12 Sudoeste 0 -- -- 44
2020-08-05 10:00:00 25.4 4 Sudoeste 6 Sudoeste 0 -- -- 51
2020-08-05 09:00:00 22.8 3 Sudoeste 5 Sudoeste 0 -- -- 57
2020-08-05 08:00:00 21.1 2 Sur 4 Sur 0 -- -- 61
2020-08-05 07:00:00 21.4 0 Calma 10 Este 0 -- -- 59
2020-08-05 06:00:00 22.8 3 Este 7 Este 0 -- -- 56
2020-08-05 05:00:00 23.2 5 Este 9 Este 0 -- -- 54
2020-08-05 04:00:00 23.9 4 Nordeste 9 Sudoeste 0 -- -- 51
2020-08-05 03:00:00 25.2 3 Norte 4 Norte 0 -- -- 50
2020-08-05 02:00:00 26.1 0 Calma 5 Sur 0 -- -- 47
2020-08-05 01:00:00 27.9 2 Sudoeste 14 Nordeste 0 -- -- 44
2020-08-05 00:00:00 29.1 13 Norte 31 Norte 0 -- -- 42
2020-08-04 23:00:00 30.8 17 Norte 25 Noroeste 0 -- -- 39
2020-08-04 22:00:00 33 9 Oeste 13 Oeste 0 -- -- 29
2020-08-04 21:00:00 35.4 11 Oeste 19 Noroeste 0 -- -- 26
2020-08-04 20:00:00 36.7 8 Noroeste 20 Noroeste 0 -- -- 24
2020-08-04 19:00:00 37 10 Oeste 21 Oeste 0 -- -- 24
2020-08-04 18:00:00 36.4 14 Oeste 25 Oeste 0 -- -- 25
2020-08-04 17:00:00 36.3 10 Noroeste 23 Noroeste 0 -- -- 25
2020-08-04 16:00:00 35.3 11 Noroeste 22 Oeste 0 -- -- 30
2020-08-04 15:00:00 33.4 13 Oeste 20 Oeste 0 -- -- 34
2020-08-04 14:00:00 31.7 12 Oeste 18 Oeste 0 -- -- 39
2020-08-04 13:00:00 29.9 5 Sudoeste 17 Oeste 0 -- -- 42
2020-08-04 12:00:00 28.2 4 Oeste 13 Este 0 -- -- 47
2020-08-04 11:00:00 25.3 9 Nordeste 15 Nordeste 0 -- -- 55
2020-08-04 10:00:00 21.6 6 Norte 11 Norte 0 -- -- 68
2020-08-04 09:00:00 18.9 6 Norte 10 Norte 0 -- -- 79
2020-08-04 08:00:00 17 3 Nordeste 9 Norte 0 -- -- 84
2020-08-04 07:00:00 17.2 4 Norte 9 Norte 0 -- -- 82
2020-08-04 06:00:00 17.5 4 Nordeste 16 Norte 0 -- -- 80
2020-08-04 05:00:00 18.2 10 Norte 15 Norte 0 -- -- 77
2020-08-04 04:00:00 19 6 Norte 12 Norte 0 -- -- 73
2020-08-04 03:00:00 20 6 Norte 12 Norte 0 -- -- 70
2020-08-04 02:00:00 21 7 Norte 14 Norte 0 -- -- 67
2020-08-04 01:00:00 22.1 9 Norte 18 Norte 0 -- -- 63
2020-08-04 00:00:00 23.6 12 Norte 27 Norte 0 -- -- 60
2020-08-03 23:00:00 25.5 19 Norte 33 Norte 0 -- -- 55
2020-08-03 22:00:00 28.1 22 Norte 38 Norte 0 -- -- 45
2020-08-03 21:00:00 31.1 22 Norte 35 Norte 0 -- -- 35
2020-08-03 20:00:00 33.3 19 Noroeste 31 Norte 0 -- -- 28
2020-08-03 19:00:00 34.3 15 Norte 37 Noroeste 0 -- -- 27
2020-08-03 18:00:00 34.4 15 Norte 31 Norte 0 -- -- 28
2020-08-03 17:00:00 33.6 15 Norte 33 Norte 0 -- -- 29
2020-08-03 16:00:00 32.9 17 Norte 34 Norte 0 -- -- 30
2020-08-03 15:00:00 31.5 16 Norte 33 Noroeste 0 -- -- 32
2020-08-03 14:00:00 29.8 16 Norte 25 Norte 0 -- -- 34
2020-08-03 13:00:00 26.8 13 Noroeste 25 Noroeste 0 -- -- 39
2020-08-03 12:00:00 24.5 12 Noroeste 21 Noroeste 0 -- -- 45
2020-08-03 11:00:00 22.1 8 Noroeste 17 Noroeste 0 -- -- 52
2020-08-03 10:00:00 19.7 10 Norte 17 Noroeste 0 -- -- 59
2020-08-03 09:00:00 17.3 6 Norte 14 Norte 0 -- -- 70
2020-08-03 08:00:00 16.7 8 Norte 15 Norte 0 -- -- 74
2020-08-03 07:00:00 17.2 5 Norte 15 Norte 0 -- -- 70
2020-08-03 06:00:00 17.8 4 Norte 14 Norte 0 -- -- 67
2020-08-03 05:00:00 18.3 5 Noroeste 12 Norte 0 -- -- 61
2020-08-03 04:00:00 18.8 5 Noroeste 12 Noroeste 0 -- -- 58
2020-08-03 03:00:00 19.6 11 Noroeste 20 Noroeste 0 -- -- 56
2020-08-03 02:00:00 20.8 4 Noroeste 16 Noroeste 0 -- -- 53
2020-08-03 01:00:00 21.7 13 Noroeste 22 Noroeste 0 -- -- 52
2020-08-03 00:00:00 23.6 14 Noroeste 28 Noroeste 0 -- -- 43
2020-08-02 23:00:00 25.5 19 Noroeste 33 Noroeste 0 -- -- 38
2020-08-02 22:00:00 28 20 Noroeste 35 Noroeste 0 -- -- 34
2020-08-02 21:00:00 31 24 Noroeste 39 Noroeste 0 -- -- 34
2020-08-02 20:00:00 33.2 21 Noroeste 34 Oeste 0 -- -- 27
2020-08-02 19:00:00 35 20 Noroeste 47 Noroeste 0 -- -- 21
2020-08-02 18:00:00 35.4 13 Noroeste 44 Noroeste 0 -- -- 23
2020-08-02 17:00:00 35.1 15 Noroeste 26 Oeste 0 -- -- 23
2020-08-02 16:00:00 33.3 16 Norte 27 Noroeste 0 -- -- 26
2020-08-02 15:00:00 32.1 14 Noroeste 25 Oeste 0 -- -- 31
2020-08-02 14:00:00 29.9 10 Norte 20 Noroeste 0 -- -- 38
2020-08-02 13:00:00 27.3 8 Norte 20 Noroeste 0 -- -- 44
2020-08-02 12:00:00 24.3 6 Noroeste 13 Oeste 0 -- -- 51
2020-08-02 11:00:00 21.4 5 Oeste 12 Noroeste 0 -- -- 59
2020-08-02 10:00:00 19 7 Noroeste 14 Noroeste 0 -- -- 73
2020-08-02 09:00:00 17 7 Norte 15 Noroeste 0 -- -- 80
2020-08-02 08:00:00 15.9 6 Oeste 10 Oeste 0 -- -- 79
2020-08-02 07:00:00 16.8 5 Norte 11 Noroeste 0 -- -- 70
2020-08-02 06:00:00 17.8 5 Noroeste 12 Noroeste 0 -- -- 64
2020-08-02 05:00:00 18.7 6 Noroeste 13 Noroeste 0 -- -- 59
2020-08-02 04:00:00 19.8 10 Noroeste 16 Norte 0 -- -- 53
2020-08-02 03:00:00 21.6 9 Noroeste 17 Noroeste 0 -- -- 51
2020-08-02 02:00:00 23.5 9 Noroeste 20 Norte 0 -- -- 55
2020-08-02 01:00:00 25.3 9 Noroeste 24 Noroeste 0 -- -- 51
2020-08-02 00:00:00 26.9 12 Norte 30 Norte 0 -- -- 49
2020-08-01 23:00:00 29.1 18 Norte 29 Norte 0 -- -- 44
2020-08-01 22:00:00 31.6 16 Norte 28 Norte 0 -- -- 37
2020-08-01 21:00:00 34.5 16 Noroeste 27 Noroeste 0 -- -- 33
2020-08-01 20:00:00 36.6 17 Norte 27 Norte 0 -- -- 27
2020-08-01 19:00:00 37.4 15 Norte 32 Noroeste 0 -- -- 26
2020-08-01 18:00:00 37.5 20 Noroeste 32 Noroeste 0 -- -- 26
2020-08-01 17:00:00 37.8 18 Noroeste 28 Noroeste 0 -- -- 22
2020-08-01 16:00:00 37.2 11 Noroeste 27 Norte 0 -- -- 22
2020-08-01 15:00:00 35.7 16 Norte 26 Nordeste 0 -- -- 23
2020-08-01 14:00:00 33.9 11 Nordeste 24 Norte 0 -- -- 25
2020-08-01 13:00:00 31.1 13 Noroeste 22 Norte 0 -- -- 33
2020-08-01 12:00:00 28.4 7 Noroeste 13 Noroeste 0 -- -- 36
2020-08-01 11:00:00 25.5 3 Noroeste 10 Noroeste 0 -- -- 42
2020-08-01 10:00:00 22.9 3 Nordeste 8 Norte 0 -- -- 49
2020-08-01 09:00:00 19.5 7 Nordeste 11 Norte 0 -- -- 60
2020-08-01 08:00:00 17.7 0 Calma 2 Oeste 0 -- -- 64
2020-08-01 07:00:00 18.1 0 Calma 4 Sur 0 -- -- 63
2020-08-01 06:00:00 19.2 0 Calma 5 Sur 0 -- -- 59
2020-08-01 05:00:00 20.9 3 Oeste 8 Noroeste 0 -- -- 55
2020-08-01 04:00:00 22.2 4 Oeste 6 Sudoeste 0 -- -- 50
2020-08-01 03:00:00 23.4 0 Calma 11 Norte 0 -- -- 41
2020-08-01 02:00:00 25.1 5 Nordeste 17 Norte 0 -- -- 37
2020-08-01 01:00:00 26.5 7 Norte 18 Noroeste 0 -- -- 38
2020-08-01 00:00:00 28.4 12 Norte 32 Noroeste 0 -- -- 40
2020-07-31 23:00:00 31 14 Noroeste 23 Oeste 0 -- -- 37
2020-07-31 22:00:00 33.4 9 Noroeste 17 Oeste 0 -- -- 30
2020-07-31 21:00:00 35.6 14 Oeste 22 Sudoeste 0 -- -- 24
2020-07-31 20:00:00 37 15 Oeste 24 Oeste 0 -- -- 22
2020-07-31 19:00:00 37.6 12 Noroeste 27 Noroeste 0 -- -- 23
2020-07-31 18:00:00 37.5 13 Oeste 26 Oeste 0 -- -- 21
2020-07-31 17:00:00 37.2 13 Oeste 26 Oeste 0 -- -- 20
2020-07-31 16:00:00 36.8 13 Oeste 22 Oeste 0 -- -- 25
2020-07-31 15:00:00 35.5 8 Noroeste 21 Oeste 0 -- -- 27
2020-07-31 14:00:00 33.5 8 Oeste 19 Oeste 0 -- -- 35
2020-07-31 13:00:00 31.8 11 Oeste 19 Sudoeste 0 -- -- 41
2020-07-31 12:00:00 30.1 8 Sudoeste 17 Oeste 0 -- -- 46
2020-07-31 11:00:00 28.3 8 Oeste 14 Oeste 0 -- -- 50
2020-07-31 10:00:00 25.4 8 Sudoeste 12 Sur 0 -- -- 61
2020-07-31 09:00:00 22.8 4 Sur 9 Este 0 -- -- 71
2020-07-31 08:00:00 20.6 4 Sudeste 10 Sur 0 -- -- 78
2020-07-31 07:00:00 20.8 6 Sudeste 9 Sudeste 0 -- -- 77
2020-07-31 06:00:00 21.5 5 Sudeste 9 Sudeste 0 -- -- 75
2020-07-31 05:00:00 21.7 6 Sudeste 8 Sudeste 0 -- -- 75
2020-07-31 04:00:00 22.3 2 Sudeste 5 Sudeste 0 -- -- 73
2020-07-31 03:00:00 23 4 Sudeste 7 Noroeste 0 -- -- 70
2020-07-31 02:00:00 24.3 5 Oeste 12 Oeste 0 -- -- 66
2020-07-31 01:00:00 25.4 9 Oeste 19 Oeste 0 -- -- 63
2020-07-31 00:00:00 27.6 17 Oeste 24 Oeste 0 -- -- 55
2020-07-30 23:00:00 30.2 11 Sudoeste 21 Oeste 0 -- -- 45
2020-07-30 22:00:00 32.4 4 Sudoeste 15 Sudoeste 0 -- -- 36
2020-07-30 21:00:00 34.5 12 Oeste 22 Oeste 0 -- -- 31
2020-07-30 20:00:00 35.3 16 Oeste 32 Oeste 0 -- -- 27
2020-07-30 19:00:00 35.7 18 Oeste 37 Oeste 0 -- -- 30
2020-07-30 18:00:00 36 21 Oeste 36 Sudoeste 0 -- -- 29
2020-07-30 17:00:00 35.7 18 Oeste 35 Oeste 0 -- -- 35
2020-07-30 16:00:00 35 21 Oeste 32 Sudoeste 0 -- -- 35
2020-07-30 15:00:00 34.6 16 Sur 36 Sudoeste 0 -- -- 34
2020-07-30 14:00:00 33.2 17 Oeste 34 Sudoeste 0 -- -- 40
2020-07-30 13:00:00 32.1 18 Sudoeste 37 Sudoeste 0 -- -- 46
2020-07-30 12:00:00 30.5 18 Sudoeste 30 Sudoeste 0 -- -- 49
2020-07-30 11:00:00 28.8 17 Sudoeste 35 Sudoeste 0 -- -- 54
2020-07-30 10:00:00 27.3 21 Sudoeste 29 Sur 0 -- -- 58
2020-07-30 09:00:00 24 3 Sudoeste 5 Sudoeste 0 -- -- 54
2020-07-30 08:00:00 22.1 3 Sur 6 Sur 0 -- -- 60
2020-07-30 07:00:00 22.2 0 Calma 8 Sudeste 0 -- -- 61
2020-07-30 06:00:00 22.6 4 Sudeste 12 Sur 0 -- -- 61
2020-07-30 05:00:00 22.9 8 Sur 10 Sur 0 -- -- 61
2020-07-30 04:00:00 23.7 3 Sur 6 Sudoeste 0 -- -- 59
2020-07-30 03:00:00 24.4 6 Sudoeste 12 Sudoeste 0 -- -- 57
2020-07-30 02:00:00 25.9 10 Sudoeste 13 Sudoeste 0 -- -- 52
2020-07-30 01:00:00 27.5 11 Oeste 17 Sudoeste 0 -- -- 46
2020-07-30 00:00:00 29.4 13 Sudoeste 21 Sudoeste 0 -- -- 39
2020-07-29 23:00:00 31.4 12 Sudoeste 17 Sudoeste 0 -- -- 34
2020-07-29 22:00:00 33.5 11 Oeste 30 Sudoeste 0 -- -- 29
2020-07-29 21:00:00 36.3 18 Sudoeste 28 Sudoeste 0 -- -- 28
2020-07-29 20:00:00 37.8 10 Oeste 24 Oeste 0 -- -- 27
2020-07-29 19:00:00 38.2 15 Oeste 30 Noroeste 0 -- -- 26
2020-07-29 18:00:00 38.3 16 Oeste 35 Oeste 0 -- -- 26
2020-07-29 17:00:00 38.1 15 Noroeste 27 Oeste 0 -- -- 26
2020-07-29 16:00:00 37.5 13 Noroeste 29 Oeste 0 -- -- 26
2020-07-29 15:00:00 36.5 12 Oeste 23 Sudoeste 0 -- -- 27
2020-07-29 14:00:00 35 13 Oeste 19 Oeste 0 -- -- 29
2020-07-29 13:00:00 32.7 6 Norte 15 Noroeste 0 -- -- 32
2020-07-29 12:00:00 29.6 4 Oeste 11 Oeste 0 -- -- 41
2020-07-29 11:00:00 26 4 Oeste 10 Oeste 0 -- -- 54
2020-07-29 10:00:00 22.7 2 Sudoeste 5 Sudoeste 0 -- -- 64
2020-07-29 09:00:00 20.4 3 Sudeste 5 Este 0 -- -- 71
2020-07-29 08:00:00 17.4 2 Sur 3 Sur 0 -- -- 79
2020-07-29 07:00:00 17.6 2 Sudeste 4 Sur 0 -- -- 76
2020-07-29 06:00:00 18.4 2 Sudeste 5 Este 0 -- -- 74
2020-07-29 05:00:00 19.6 4 Norte 8 Norte 0 -- -- 69
2020-07-29 04:00:00 20.5 5 Norte 8 Norte 0 -- -- 65
2020-07-29 03:00:00 21.7 3 Nordeste 9 Norte 0 -- -- 62
2020-07-29 02:00:00 23.1 3 Norte 12 Norte 0 -- -- 58
2020-07-29 01:00:00 24.9 8 Norte 15 Norte 0 -- -- 53
2020-07-29 00:00:00 26.6 11 Norte 22 Noroeste 0 -- -- 50
2020-07-28 23:00:00 29.1 10 Norte 17 Noroeste 0 -- -- 41
2020-07-28 22:00:00 31.5 15 Noroeste 23 Noroeste 0 -- -- 36
2020-07-28 21:00:00 34.2 17 Oeste 28 Oeste 0 -- -- 31
2020-07-28 20:00:00 36.1 11 Noroeste 26 Oeste 0 -- -- 28
2020-07-28 19:00:00 36 14 Oeste 30 Oeste 0 -- -- 26
2020-07-28 18:00:00 36 11 Oeste 27 Oeste 0 -- -- 28
2020-07-28 17:00:00 34.9 9 Oeste 27 Oeste 0 -- -- 31
2020-07-28 16:00:00 33.2 10 Oeste 23 Oeste 0 -- -- 36
2020-07-28 15:00:00 30.8 13 Oeste 28 Noroeste 0 -- -- 44
2020-07-28 14:00:00 28.7 11 Oeste 23 Oeste 0 -- -- 49
2020-07-28 13:00:00 27 9 Oeste 22 Oeste 0 -- -- 55
2020-07-28 12:00:00 24.3 9 Oeste 19 Oeste 0 -- -- 62
2020-07-28 11:00:00 22.1 5 Norte 17 Oeste 0 -- -- 70
2020-07-28 10:00:00 20.1 6 Sudoeste 16 Oeste 0 -- -- 78
2020-07-28 09:00:00 19.2 6 Noroeste 14 Noroeste 0 -- -- 83
2020-07-28 08:00:00 18.8 7 Oeste 15 Oeste 0 -- -- 85
2020-07-28 07:00:00 18.6 8 Noroeste 15 Noroeste 0 -- -- 86
2020-07-28 06:00:00 18.6 9 Noroeste 15 Noroeste 0 -- -- 86
2020-07-28 05:00:00 19.2 6 Noroeste 15 Noroeste 0 -- -- 82
2020-07-28 04:00:00 20.1 9 Noroeste 17 Noroeste 0 -- -- 78
2020-07-28 03:00:00 20.9 13 Noroeste 20 Noroeste 0 -- -- 74
2020-07-28 02:00:00 22.3 12 Noroeste 18 Noroeste 0 -- -- 68
2020-07-28 01:00:00 23.9 12 Noroeste 26 Noroeste 0 -- -- 61
2020-07-28 00:00:00 25.9 19 Noroeste 27 Noroeste 0 -- -- 54
2020-07-27 23:00:00 28.2 15 Noroeste 30 Noroeste 0 -- -- 48
2020-07-27 22:00:00 30.7 15 Noroeste 30 Noroeste 0 -- -- 43
2020-07-27 21:00:00 33.6 21 Oeste 33 Oeste 0 -- -- 35
2020-07-27 20:00:00 34.5 19 Noroeste 30 Noroeste 0 -- -- 38
2020-07-27 19:00:00 34.8 17 Oeste 36 Oeste 0 -- -- 38
2020-07-27 18:00:00 34.8 20 Oeste 35 Oeste 0 -- -- 37
2020-07-27 17:00:00 34.8 22 Oeste 35 Oeste 0 -- -- 38
2020-07-27 16:00:00 34.9 19 Sudoeste 37 Oeste 0 -- -- 38
2020-07-27 15:00:00 34.5 23 Oeste 37 Sudoeste 0 -- -- 36
2020-07-27 14:00:00 33.5 17 Sudoeste 31 Sudoeste 0 -- -- 39
2020-07-27 13:00:00 32.2 17 Sudoeste 27 Sudoeste 0 -- -- 43
2020-07-27 12:00:00 31.1 15 Sudoeste 27 Sudoeste 0 -- -- 43
2020-07-27 09:00:00 -- -- -- -- -- -- -- -- --
2020-07-27 08:00:00 -- -- -- -- -- -- -- -- --
2020-07-27 07:00:00 -- -- -- -- -- -- -- -- --
2020-07-27 06:00:00 -- -- -- -- -- -- -- -- --
2020-07-27 05:00:00 -- -- -- -- -- -- -- -- --
2020-07-27 04:00:00 -- -- -- -- -- -- -- -- --
2020-07-27 03:00:00 -- -- -- -- -- -- -- -- --
2020-07-27 02:00:00 -- -- -- -- -- -- -- -- --
2020-07-27 01:00:00 -- -- -- -- -- -- -- -- --
2020-07-27 00:00:00 -- -- -- -- -- -- -- -- --
2020-07-26 23:00:00 -- -- -- -- -- -- -- -- --
2020-07-26 22:00:00 -- -- -- -- -- -- -- -- --
2020-07-26 21:00:00 -- -- -- -- -- -- -- -- --
2020-07-26 20:00:00 -- -- -- -- -- -- -- -- --
2020-07-26 19:00:00 -- -- -- -- -- -- -- -- --
2020-07-26 18:00:00 -- -- -- -- -- -- -- -- --
2020-07-26 17:00:00 -- -- -- -- -- -- -- -- --
2020-07-26 16:00:00 -- -- -- -- -- -- -- -- --
2020-07-26 15:00:00 -- -- -- -- -- -- -- -- --
2020-07-26 14:00:00 -- -- -- -- -- -- -- -- --
2020-07-26 13:00:00 -- -- -- -- -- -- -- -- --
2020-07-26 12:00:00 -- -- -- -- -- -- -- -- --
2020-07-26 11:00:00 -- -- -- -- -- -- -- -- --
2020-07-26 10:00:00 -- -- -- -- -- -- -- -- --
2020-07-26 09:00:00 -- -- -- -- -- -- -- -- --
2020-07-26 08:00:00 -- -- -- -- -- -- -- -- --
2020-07-26 07:00:00 -- -- -- -- -- -- -- -- --
2020-07-26 06:00:00 -- -- -- -- -- -- -- -- --
2020-07-26 05:00:00 -- -- -- -- -- -- -- -- --
2020-07-26 04:00:00 -- -- -- -- -- -- -- -- --
2020-07-26 03:00:00 -- -- -- -- -- -- -- -- --
2020-07-26 02:00:00 -- -- -- -- -- -- -- -- --
2020-07-26 01:00:00 -- -- -- -- -- -- -- -- --
2020-07-26 00:00:00 -- -- -- -- -- -- -- -- --
2020-07-25 23:00:00 -- -- -- -- -- -- -- -- --
2020-07-25 22:00:00 -- -- -- -- -- -- -- -- --
2020-07-25 21:00:00 -- -- -- -- -- -- -- -- --
2020-07-25 20:00:00 -- -- -- -- -- -- -- -- --
2020-07-25 19:00:00 -- -- -- -- -- -- -- -- --
2020-07-25 18:00:00 -- -- -- -- -- -- -- -- --
2020-07-25 17:00:00 -- -- -- -- -- -- -- -- --
2020-07-25 16:00:00 -- -- -- -- -- -- -- -- --
2020-07-25 15:00:00 -- -- -- -- -- -- -- -- --
2020-07-25 14:00:00 -- -- -- -- -- -- -- -- --
2020-07-25 13:00:00 -- -- -- -- -- -- -- -- --
2020-07-25 12:00:00 -- -- -- -- -- -- -- -- --
2020-07-25 11:00:00 -- -- -- -- -- -- -- -- --
2020-07-25 10:00:00 -- -- -- -- -- -- -- -- --
2020-07-25 09:00:00 -- -- -- -- -- -- -- -- --
2020-07-25 08:00:00 -- -- -- -- -- -- -- -- --
2020-07-25 07:00:00 16.7 0 Calma 6 Sur 0 -- -- 64
2020-07-25 06:00:00 17.7 0 Calma 5 Sudoeste 0 -- -- 61
2020-07-25 05:00:00 18.3 0 Calma 2 Este 0 -- -- 60
2020-07-25 04:00:00 19.5 0 Calma 5 Norte 0 -- -- 57
2020-07-25 03:00:00 20.7 -- -- -- -- 0 -- -- 53
2020-07-25 02:00:00 22 0 Calma 11 Norte 0 -- -- 49
2020-07-25 01:00:00 23.7 4 Norte 13 Norte 0 -- -- 45
2020-07-25 00:00:00 25.6 6 Noroeste 24 Noroeste 0 -- -- 38
2020-07-24 23:00:00 27.9 15 Norte 30 Norte 0 -- -- 33
2020-07-24 22:00:00 30.5 20 Norte 37 Norte 0 -- -- 30
2020-07-24 21:00:00 34.7 21 Norte 28 Norte 0 -- -- 23
2020-07-24 20:00:00 36.6 18 Noroeste 34 Oeste 0 -- -- 19
2020-07-24 19:00:00 37.6 19 Noroeste 30 Noroeste 0 -- -- 20
2020-07-24 18:00:00 37.6 16 Oeste 29 Oeste 0 -- -- 22
2020-07-24 17:00:00 37.1 19 Oeste 27 Oeste 0 -- -- 24
2020-07-24 16:00:00 36.2 13 Oeste 28 Oeste 0 -- -- 25
2020-07-24 15:00:00 35 14 Oeste 24 Oeste 0 -- -- 28
2020-07-24 14:00:00 33.5 11 Oeste 24 Noroeste 0 -- -- 33
2020-07-24 13:00:00 31.1 8 Noroeste 17 Noroeste 0 -- -- 38
2020-07-24 12:00:00 28.1 6 Noroeste 14 Noroeste 0 -- -- 46
2020-07-24 11:00:00 25.4 7 Oeste 12 Oeste 0 -- -- 54
2020-07-24 10:00:00 22.7 3 Noroeste 6 Norte 0 -- -- 63
2020-07-24 09:00:00 20.7 0 Calma 10 Nordeste 0 -- -- 69
2020-07-24 08:00:00 -- -- -- -- -- -- -- -- --
2020-07-24 07:00:00 -- -- -- -- -- -- -- -- --
2020-07-24 06:00:00 -- -- -- -- -- -- -- -- --
2020-07-24 05:00:00 -- -- -- -- -- -- -- -- --
2020-07-24 04:00:00 -- -- -- -- -- -- -- -- --
2020-07-24 03:00:00 -- -- -- -- -- -- -- -- --
2020-07-24 02:00:00 -- -- -- -- -- -- -- -- --
2020-07-24 01:00:00 -- -- -- -- -- -- -- -- --
2020-07-24 00:00:00 28.2 -- -- -- -- 0 -- -- --
2020-07-23 23:00:00 30.1 21 Noroeste 31 Oeste 0 -- -- 41
2020-07-23 22:00:00 32.1 14 Noroeste 32 Noroeste 0 -- -- 34
2020-07-23 21:00:00 34.7 17 Noroeste 32 Noroeste 0 -- -- 29
2020-07-23 20:00:00 36.3 20 Noroeste 33 Noroeste 0 -- -- 27
2020-07-23 19:00:00 37.3 13 Noroeste 28 Oeste 0 -- -- 26
2020-07-23 18:00:00 37.1 19 Oeste 48 Oeste 0 -- -- 26
2020-07-23 17:00:00 37 14 Oeste 26 Oeste 0 -- -- 27
2020-07-23 16:00:00 36.8 13 Noroeste 27 Oeste 0 -- -- 28
2020-07-23 15:00:00 36.1 11 Noroeste 28 Oeste 0 -- -- 29
2020-07-23 14:00:00 34.8 12 Noroeste 24 Noroeste 0 -- -- 32
2020-07-23 13:00:00 -- -- -- -- -- -- -- -- --
2020-07-23 12:00:00 -- -- -- -- -- -- -- -- --
2020-07-23 11:00:00 -- -- -- -- -- -- -- -- --
2020-07-23 10:00:00 -- -- -- -- -- -- -- -- --
2020-07-23 09:00:00 -- -- -- -- -- -- -- -- --
2020-07-23 08:00:00 -- -- -- -- -- -- -- -- --
2020-07-23 07:00:00 -- -- -- -- -- -- -- -- --
2020-07-23 06:00:00 -- -- -- -- -- -- -- -- --
2020-07-23 05:00:00 -- -- -- -- -- -- -- -- --
2020-07-23 04:00:00 -- -- -- -- -- -- -- -- --
2020-07-23 03:00:00 -- -- -- -- -- -- -- -- --
2020-07-23 02:00:00 -- -- -- -- -- -- -- -- --
2020-07-23 01:00:00 -- -- -- -- -- -- -- -- --
2020-07-23 00:00:00 -- -- -- -- -- -- -- -- --
2020-07-22 23:00:00 -- -- -- -- -- -- -- -- --
2020-07-22 22:00:00 -- -- -- -- -- -- -- -- --
2020-07-22 21:00:00 -- -- -- -- -- -- -- -- --
2020-07-22 20:00:00 -- -- -- -- -- -- -- -- --
2020-07-22 19:00:00 -- -- -- -- -- -- -- -- --
2020-07-22 18:00:00 -- -- -- -- -- -- -- -- --
2020-07-22 17:00:00 -- -- -- -- -- -- -- -- --
2020-07-22 16:00:00 -- -- -- -- -- -- -- -- --
2020-07-22 15:00:00 -- -- -- -- -- -- -- -- --
2020-07-22 14:00:00 -- -- -- -- -- -- -- -- --
2020-07-22 13:00:00 -- -- -- -- -- -- -- -- --
2020-07-22 12:00:00 -- -- -- -- -- -- -- -- --
2020-07-22 11:00:00 -- -- -- -- -- -- -- -- --
2020-07-22 10:00:00 -- -- -- -- -- -- -- -- --
2020-07-22 09:00:00 -- -- -- -- -- -- -- -- --
2020-07-22 08:00:00 -- -- -- -- -- -- -- -- --
2020-07-22 07:00:00 -- -- -- -- -- -- -- -- --
2020-07-22 06:00:00 -- -- -- -- -- -- -- -- --
2020-07-22 05:00:00 -- -- -- -- -- -- -- -- --
2020-07-22 04:00:00 -- -- -- -- -- -- -- -- --
2020-07-22 03:00:00 -- -- -- -- -- -- -- -- --
2020-07-22 02:00:00 -- -- -- -- -- -- -- -- --
2020-07-22 01:00:00 -- -- -- -- -- -- -- -- --
2020-07-22 00:00:00 -- -- -- -- -- -- -- -- --
2020-07-21 23:00:00 -- -- -- -- -- -- -- -- --
2020-07-21 22:00:00 -- -- -- -- -- -- -- -- --
2020-07-21 21:00:00 -- -- -- -- -- -- -- -- --
2020-07-21 20:00:00 -- -- -- -- -- -- -- -- --
2020-07-21 19:00:00 -- -- -- -- -- -- -- -- --
2020-07-21 18:00:00 -- -- -- -- -- -- -- -- --
2020-07-21 17:00:00 -- -- -- -- -- -- -- -- --
2020-07-21 16:00:00 -- -- -- -- -- -- -- -- --
2020-07-21 15:00:00 -- -- -- -- -- -- -- -- --
2020-07-21 14:00:00 -- -- -- -- -- -- -- -- --
2020-07-21 13:00:00 -- -- -- -- -- -- -- -- --
2020-07-21 12:00:00 -- -- -- -- -- -- -- -- --
2020-07-21 11:00:00 -- -- -- -- -- -- -- -- --
2020-07-21 10:00:00 -- -- -- -- -- -- -- -- --
2020-07-21 09:00:00 -- -- -- -- -- -- -- -- --
2020-07-21 08:00:00 -- -- -- -- -- -- -- -- --
2020-07-21 07:00:00 -- -- -- -- -- -- -- -- --
2020-07-21 06:00:00 -- -- -- -- -- -- -- -- --
2020-07-21 05:00:00 -- -- -- -- -- -- -- -- --
2020-07-21 04:00:00 -- -- -- -- -- -- -- -- --
2020-07-21 03:00:00 -- -- -- -- -- -- -- -- --
2020-07-21 02:00:00 -- -- -- -- -- -- -- -- --
2020-07-21 01:00:00 -- -- -- -- -- -- -- -- --
2020-07-21 00:00:00 -- -- -- -- -- -- -- -- --
2020-07-20 23:00:00 -- -- -- -- -- -- -- -- --
2020-07-20 22:00:00 -- -- -- -- -- -- -- -- --
2020-07-20 21:00:00 -- -- -- -- -- -- -- -- --
2020-07-20 20:00:00 -- -- -- -- -- -- -- -- --
2020-07-20 19:00:00 -- -- -- -- -- -- -- -- --
2020-07-20 18:00:00 -- -- -- -- -- -- -- -- --
2020-07-20 17:00:00 -- -- -- -- -- -- -- -- --
2020-07-20 16:00:00 -- -- -- -- -- -- -- -- --
2020-07-20 15:00:00 -- -- -- -- -- -- -- -- --
2020-07-20 14:00:00 -- -- -- -- -- -- -- -- --
2020-07-20 13:00:00 -- -- -- -- -- -- -- -- --
2020-07-20 12:00:00 -- -- -- -- -- -- -- -- --
2020-07-20 11:00:00 -- -- -- -- -- -- -- -- --
2020-07-20 10:00:00 -- -- -- -- -- -- -- -- --
2020-07-20 09:00:00 -- -- -- -- -- -- -- -- --
2020-07-20 08:00:00 -- -- -- -- -- -- -- -- --
2020-07-20 07:00:00 -- -- -- -- -- -- -- -- --
2020-07-20 06:00:00 -- -- -- -- -- -- -- -- --
2020-07-20 05:00:00 -- -- -- -- -- -- -- -- --
2020-07-20 04:00:00 -- -- -- -- -- -- -- -- --
2020-07-20 03:00:00 -- -- -- -- -- -- -- -- --
2020-07-20 02:00:00 -- -- -- -- -- -- -- -- --
2020-07-20 01:00:00 -- -- -- -- -- -- -- -- --
2020-07-20 00:00:00 -- -- -- -- -- -- -- -- --
2020-07-19 23:00:00 -- -- -- -- -- -- -- -- --
2020-07-19 22:00:00 -- -- -- -- -- -- -- -- --
2020-07-19 21:00:00 -- -- -- -- -- -- -- -- --
2020-07-19 20:00:00 -- -- -- -- -- -- -- -- --
2020-07-19 19:00:00 -- -- -- -- -- -- -- -- --
2020-07-19 18:00:00 -- -- -- -- -- -- -- -- --
2020-07-19 17:00:00 -- -- -- -- -- -- -- -- --
2020-07-19 16:00:00 -- -- -- -- -- -- -- -- --
2020-07-19 15:00:00 -- -- -- -- -- -- -- -- --
2020-07-19 14:00:00 -- -- -- -- -- -- -- -- --
2020-07-19 13:00:00 -- -- -- -- -- -- -- -- --
2020-07-19 12:00:00 -- -- -- -- -- -- -- -- --
2020-07-19 11:00:00 -- -- -- -- -- -- -- -- --
2020-07-19 10:00:00 -- -- -- -- -- -- -- -- --
2020-07-19 09:00:00 -- -- -- -- -- -- -- -- --
2020-07-19 08:00:00 -- -- -- -- -- -- -- -- --
2020-07-19 07:00:00 -- -- -- -- -- -- -- -- --
2020-07-19 06:00:00 -- -- -- -- -- -- -- -- --
2020-07-19 05:00:00 -- -- -- -- -- -- -- -- --
2020-07-19 04:00:00 -- -- -- -- -- -- -- -- --
2020-07-19 03:00:00 -- -- -- -- -- -- -- -- --
2020-07-19 02:00:00 -- -- -- -- -- -- -- -- --
2020-07-19 01:00:00 -- -- -- -- -- -- -- -- --
2020-07-19 00:00:00 -- -- -- -- -- -- -- -- --
2020-07-18 23:00:00 -- -- -- -- -- -- -- -- --
2020-07-18 22:00:00 -- -- -- -- -- -- -- -- --
2020-07-18 21:00:00 -- -- -- -- -- -- -- -- --
2020-07-18 20:00:00 -- -- -- -- -- -- -- -- --
2020-07-18 19:00:00 -- -- -- -- -- -- -- -- --
2020-07-18 18:00:00 -- -- -- -- -- -- -- -- --
2020-07-18 17:00:00 -- -- -- -- -- -- -- -- --
2020-07-18 16:00:00 -- -- -- -- -- -- -- -- --
2020-07-18 15:00:00 -- -- -- -- -- -- -- -- --
2020-07-18 14:00:00 -- -- -- -- -- -- -- -- --
2020-07-18 13:00:00 -- -- -- -- -- -- -- -- --
2020-07-18 12:00:00 -- -- -- -- -- -- -- -- --
2020-07-18 11:00:00 -- -- -- -- -- -- -- -- --
2020-07-18 10:00:00 -- -- -- -- -- -- -- -- --
2020-07-18 09:00:00 -- -- -- -- -- -- -- -- --
2020-07-18 08:00:00 -- -- -- -- -- -- -- -- --
2020-07-18 07:00:00 -- -- -- -- -- -- -- -- --
2020-07-18 06:00:00 -- -- -- -- -- -- -- -- --
2020-07-18 05:00:00 -- -- -- -- -- -- -- -- --
2020-07-18 04:00:00 -- -- -- -- -- -- -- -- --
2020-07-18 03:00:00 -- -- -- -- -- -- -- -- --
2020-07-18 02:00:00 -- -- -- -- -- -- -- -- --
2020-07-18 01:00:00 -- -- -- -- -- -- -- -- --
2020-07-18 00:00:00 -- -- -- -- -- -- -- -- --
2020-07-17 23:00:00 -- -- -- -- -- -- -- -- --
2020-07-17 22:00:00 -- -- -- -- -- -- -- -- --
2020-07-17 21:00:00 -- -- -- -- -- -- -- -- --
2020-07-17 20:00:00 -- -- -- -- -- -- -- -- --
2020-07-17 19:00:00 -- -- -- -- -- -- -- -- --
2020-07-17 18:00:00 -- -- -- -- -- -- -- -- --
2020-07-17 17:00:00 -- -- -- -- -- -- -- -- --
2020-07-17 16:00:00 -- -- -- -- -- -- -- -- --
2020-07-17 15:00:00 -- -- -- -- -- -- -- -- --
2020-07-17 14:00:00 -- -- -- -- -- -- -- -- --
2020-07-17 13:00:00 -- -- -- -- -- -- -- -- --
2020-07-17 12:00:00 -- -- -- -- -- -- -- -- --
2020-07-17 11:00:00 -- -- -- -- -- -- -- -- --
2020-07-17 10:00:00 -- -- -- -- -- -- -- -- --
2020-07-17 09:00:00 -- -- -- -- -- -- -- -- --
2020-07-17 08:00:00 -- -- -- -- -- -- -- -- --
2020-07-17 07:00:00 -- -- -- -- -- -- -- -- --
2020-07-17 06:00:00 -- -- -- -- -- -- -- -- --
2020-07-17 05:00:00 -- -- -- -- -- -- -- -- --
2020-07-17 04:00:00 -- -- -- -- -- -- -- -- --
2020-07-17 03:00:00 -- -- -- -- -- -- -- -- --
2020-07-17 02:00:00 -- -- -- -- -- -- -- -- --
2020-07-17 01:00:00 -- -- -- -- -- -- -- -- --
2020-07-17 00:00:00 -- -- -- -- -- -- -- -- --
2020-07-16 23:00:00 -- -- -- -- -- -- -- -- --
2020-07-16 22:00:00 -- -- -- -- -- -- -- -- --
2020-07-16 21:00:00 -- -- -- -- -- -- -- -- --
2020-07-16 20:00:00 -- -- -- -- -- -- -- -- --
2020-07-16 19:00:00 -- -- -- -- -- -- -- -- --
2020-07-16 18:00:00 -- -- -- -- -- -- -- -- --
2020-07-16 17:00:00 -- -- -- -- -- -- -- -- --
2020-07-16 16:00:00 -- -- -- -- -- -- -- -- --
2020-07-16 15:00:00 -- -- -- -- -- -- -- -- --
2020-07-16 14:00:00 -- -- -- -- -- -- -- -- --
2020-07-16 13:00:00 -- -- -- -- -- -- -- -- --
2020-07-16 12:00:00 -- -- -- -- -- -- -- -- --
2020-07-16 11:00:00 -- -- -- -- -- -- -- -- --
2020-07-16 10:00:00 -- -- -- -- -- -- -- -- --
2020-07-16 09:00:00 -- -- -- -- -- -- -- -- --
2020-07-16 08:00:00 -- -- -- -- -- -- -- -- --
2020-07-16 07:00:00 -- -- -- -- -- -- -- -- --
2020-07-16 06:00:00 -- -- -- -- -- -- -- -- --
2020-07-16 05:00:00 -- -- -- -- -- -- -- -- --
2020-07-16 04:00:00 -- -- -- -- -- -- -- -- --
2020-07-16 03:00:00 -- -- -- -- -- -- -- -- --
2020-07-16 02:00:00 -- -- -- -- -- -- -- -- --
2020-07-16 01:00:00 -- -- -- -- -- -- -- -- --
2020-07-16 00:00:00 -- -- -- -- -- -- -- -- --
2020-07-15 23:00:00 -- -- -- -- -- -- -- -- --
2020-07-15 22:00:00 -- -- -- -- -- -- -- -- --
2020-07-15 21:00:00 -- -- -- -- -- -- -- -- --
2020-07-15 20:00:00 -- -- -- -- -- -- -- -- --
2020-07-15 19:00:00 -- -- -- -- -- -- -- -- --
2020-07-15 18:00:00 -- -- -- -- -- -- -- -- --
2020-07-15 17:00:00 -- -- -- -- -- -- -- -- --
2020-07-15 16:00:00 -- -- -- -- -- -- -- -- --
2020-07-15 15:00:00 -- -- -- -- -- -- -- -- --
2020-07-15 14:00:00 -- -- -- -- -- -- -- -- --
2020-07-15 13:00:00 -- -- -- -- -- -- -- -- --
2020-07-15 12:00:00 -- -- -- -- -- -- -- -- --
2020-07-15 11:00:00 -- -- -- -- -- -- -- -- --
2020-07-15 10:00:00 -- -- -- -- -- -- -- -- --
2020-07-15 09:00:00 -- -- -- -- -- -- -- -- --
2020-07-15 08:00:00 -- -- -- -- -- -- -- -- --
2020-07-15 07:00:00 19.8 6 Sudeste 9 Sudeste 0 -- -- 60
2020-07-15 06:00:00 20.2 4 Sur 6 Sur 0 -- -- 59
2020-07-15 05:00:00 21 0 Calma 6 Sudoeste 0 -- -- 55
2020-07-15 04:00:00 22.5 2 Noroeste 8 Nordeste 0 -- -- 50
2020-07-15 03:00:00 23.8 8 Nordeste 10 Nordeste 0 -- -- 47
2020-07-15 02:00:00 24.7 6 Nordeste 10 Norte 0 -- -- 44
2020-07-15 01:00:00 26.4 8 Norte 19 Norte 0 -- -- 41
2020-07-15 00:00:00 27.9 8 Norte 26 Norte 0 -- -- 38
2020-07-14 23:00:00 29.7 19 Norte 30 Norte 0 -- -- 36
2020-07-14 22:00:00 31.5 23 Norte 44 Norte 0 -- -- 36
2020-07-14 21:00:00 35 24 Norte 35 Noroeste 0 -- -- 30
2020-07-14 20:00:00 37.3 19 Noroeste 31 Norte 0 -- -- 26
2020-07-14 19:00:00 38.1 18 Noroeste 30 Noroeste 0 -- -- 23
2020-07-14 18:00:00 38.5 17 Noroeste 32 Norte 0 -- -- 23
2020-07-14 17:00:00 38.6 11 Nordeste 31 Oeste 0 -- -- 23
2020-07-14 16:00:00 37.9 13 Norte 28 Nordeste 0 -- -- 23
2020-07-14 15:00:00 37.1 11 Norte 32 Oeste 0 -- -- 25
2020-07-14 14:00:00 36.4 12 Noroeste 27 Noroeste 0 -- -- 27
2020-07-14 13:00:00 34.3 13 Noroeste 26 Norte 0 -- -- 32
2020-07-14 12:00:00 31.6 12 Oeste 26 Oeste 0 -- -- 37
2020-07-14 11:00:00 29.1 6 Oeste 14 Oeste 0 -- -- 47
2020-07-14 10:00:00 26.2 7 Oeste 12 Oeste 0 -- -- 56
2020-07-14 09:00:00 24.5 4 Oeste 6 Oeste 0 -- -- 63
2020-07-14 08:00:00 -- -- -- -- -- -- -- -- --
2020-07-14 07:00:00 -- -- -- -- -- -- -- -- --
2020-07-14 06:00:00 -- -- -- -- -- -- -- -- --
2020-07-14 05:00:00 -- -- -- -- -- -- -- -- --
2020-07-14 04:00:00 -- -- -- -- -- -- -- -- --
2020-07-14 03:00:00 27.3 15 Nordeste 20 Nordeste 0 -- -- 50
2020-07-14 02:00:00 27.9 11 Nordeste 16 Norte 0 -- -- 49
2020-07-14 01:00:00 29 11 Norte 22 Norte 0 -- -- 47
2020-07-14 00:00:00 31 15 Norte 28 Norte 0 -- -- 39
2020-07-13 23:00:00 32.2 7 Nordeste 11 Norte 0 -- -- 30
2020-07-13 22:00:00 33.9 6 Nordeste 14 Nordeste 0 -- -- 28
2020-07-13 21:00:00 36.4 12 Nordeste 24 Nordeste 0 -- -- 26
2020-07-13 20:00:00 37 14 Nordeste 27 Nordeste 0 -- -- 25
2020-07-13 19:00:00 37.6 14 Nordeste 35 Norte 0 -- -- 23
2020-07-13 18:00:00 37.9 17 Nordeste 30 Nordeste 0 -- -- 25
2020-07-13 17:00:00 38 19 Nordeste 40 Norte 0 -- -- 25
2020-07-13 16:00:00 37.3 17 Nordeste 33 Nordeste 0 -- -- 27
2020-07-13 15:00:00 36.8 21 Norte 32 Nordeste 0 -- -- 28
2020-07-13 14:00:00 36.1 17 Norte 27 Norte 0 -- -- 30
2020-07-13 13:00:00 35.3 15 Norte 29 Norte 0 -- -- 31
2020-07-13 12:00:00 32.7 9 Norte 16 Noroeste 0 -- -- 37
2020-07-13 11:00:00 29.3 5 Oeste 15 Noroeste 0 -- -- 45
2020-07-13 10:00:00 26.5 6 Oeste 10 Oeste 0 -- -- 52
2020-07-13 09:00:00 23.5 5 Sudoeste 9 Sudoeste 0 -- -- 54
2020-07-13 08:00:00 22.4 0 Calma 8 Sudeste 0 -- -- 51
2020-07-13 07:00:00 22.5 4 Nordeste 5 Nordeste 0 -- -- 52
2020-07-13 06:00:00 -- -- -- -- -- -- -- -- --
2020-07-13 05:00:00 -- -- -- -- -- -- -- -- --
2020-07-13 04:00:00 -- -- -- -- -- -- -- -- --
2020-07-13 03:00:00 -- -- -- -- -- -- -- -- --
2020-07-13 02:00:00 -- -- -- -- -- -- -- -- --
2020-07-13 01:00:00 -- -- -- -- -- -- -- -- --
2020-07-13 00:00:00 -- -- -- -- -- -- -- -- --